Time;durP1;ratioP1;P1;durP2;ratioP2;P2;SDS_P1;SDS_P2;PMS_P1;PMS_P2;Temp;Humidity;BMP_temperature;BMP_pressure;BME280_temperature;BME280_humidity;BME280_pressure;Samples;Min_cycle;Max_cycle;Signal;HPM_P1;HPM_P2
2023/09/27 03:40:42;;;;;;;5.50;4.60;;;;;;;14.97;84.54;100091.55;102687;1295;601112;-20
2023/09/27 03:43:10;;;;;;;6.10;5.40;;;;;;;14.74;84.42;100087.38;104872;1266;61085;-20
2023/09/27 03:45:37;;;;;;;7.90;6.10;;;;;;;14.56;84.42;100091.58;104836;1264;61066;-20
2023/09/27 03:55:45;;;;;;;6.40;5.70;;;;;;;15.14;84.74;100097.33;102653;1289;600202;-20
2023/09/27 03:58:13;;;;;;;6.70;5.50;;;;;;;14.98;84.22;100096.94;104926;1266;61174;-20
2023/09/27 04:00:41;;;;;;;7.70;6.00;;;;;;;14.87;83.95;100100.11;105105;1264;61641;-20
2023/09/27 04:03:09;;;;;;;7.90;6.10;;;;;;;14.67;84.40;100101.20;104925;1263;72253;-20
2023/09/27 04:13:35;;;;;;;9.60;7.70;;;;;;;14.62;87.18;100104.41;102617;1292;600269;-21
2023/09/27 04:16:04;;;;;;;7.80;6.50;;;;;;;14.16;89.03;100108.23;104189;1280;61309;-22
2023/09/27 04:18:32;;;;;;;10.00;7.70;;;;;;;14.02;89.69;100109.83;104455;1275;61235;-21
2023/09/27 04:21:10;;;;;;;6.70;5.30;;;;;;;13.89;90.66;100111.77;104479;1273;72351;-23
2023/09/27 04:23:38;;;;;;;5.70;5.00;;;;;;;14.29;89.76;100112.27;104033;1281;73328;-22
2023/09/27 04:26:06;;;;;;;6.20;4.90;;;;;;;14.62;87.93;100115.02;102382;1272;2955213;-21
2023/09/27 04:28:35;;;;;;;8.10;6.30;;;;;;;14.65;86.59;100112.84;104543;1272;61222;-23
2023/09/27 04:31:03;;;;;;;8.80;6.90;;;;;;;14.48;87.03;100112.31;104503;1273;61167;-22
2023/09/27 04:33:31;;;;;;;7.60;6.80;;;;;;;14.24;88.03;100108.85;104441;1276;72211;-21
2023/09/27 04:36:17;;;;;;;5.80;4.90;;;;;;;13.99;89.81;100114.64;103991;1275;74361;-21
2023/09/27 04:38:45;;;;;;;6.20;4.40;;;;;;;14.50;89.14;100109.16;104012;1275;70421;-21
2023/09/27 04:41:14;;;;;;;5.90;5.10;;;;;;;14.72;86.63;100107.08;104032;1278;61252;-21
2023/09/27 04:43:43;;;;;;;7.60;6.40;;;;;;;14.41;87.16;100107.30;103841;1275;61161;-21
2023/09/27 04:46:18;;;;;;;6.80;6.10;;;;;;;14.23;88.68;100105.23;104065;1281;71895;-21
2023/09/27 04:48:46;;;;;;;6.90;5.50;;;;;;;14.02;88.73;100111.45;103950;1275;74243;-21
2023/09/27 04:51:14;;;;;;;5.60;4.60;;;;;;;13.65;91.42;100113.05;104037;1275;71415;-21
2023/09/27 04:53:42;;;;;;;7.00;5.40;;;;;;;14.01;91.30;100117.20;104051;1268;61306;-21
2023/09/27 04:56:11;;;;;;;7.30;5.30;;;;;;;14.58;89.23;100117.66;104437;1269;61045;-21
2023/09/27 04:58:40;;;;;;;6.70;5.40;;;;;;;14.42;88.02;100120.45;104448;1275;71954;-21
2023/09/27 05:01:10;;;;;;;7.80;5.40;;;;;;;14.44;87.52;100121.21;104608;1275;73485;-21
2023/09/27 05:03:38;;;;;;;10.10;7.30;;;;;;;14.26;87.55;100123.16;104591;1272;71679;-21
2023/09/27 05:06:06;;;;;;;6.80;4.60;;;;;;;14.06;89.45;100129.05;104610;1270;61639;-21
2023/09/27 05:08:34;;;;;;;6.00;5.10;;;;;;;14.28;88.97;100127.84;105147;1263;61094;-21
2023/09/27 05:11:02;;;;;;;5.70;4.90;;;;;;;14.41;89.06;100128.73;105051;1262;73069;-21
2023/09/27 05:13:30;;;;;;;5.90;5.20;;;;;;;14.61;87.06;100127.64;105110;1267;72748;-21
2023/09/27 05:15:58;;;;;;;5.90;5.20;;;;;;;14.38;87.27;100129.73;105235;1262;71450;-21
2023/09/27 05:18:26;;;;;;;6.80;5.40;;;;;;;14.22;88.14;100130.77;105024;1263;61190;-21
2023/09/27 05:28:38;;;;;;;5.60;5.00;;;;;;;14.75;86.50;100133.93;102639;1295;600041;-20
2023/09/27 05:31:06;;;;;;;6.10;5.10;;;;;;;14.41;88.15;100138.58;104807;1270;61095;-20
2023/09/27 05:41:16;;;;;;;6.30;4.60;;;;;;;15.27;84.85;100143.64;102722;1290;600078;-20
2023/09/27 05:43:45;;;;;;;6.40;5.60;;;;;;;15.20;84.58;100148.40;104901;1264;61001;-22
2023/09/27 05:46:13;;;;;;;5.90;5.30;;;;;;;14.99;84.79;100147.18;104923;1264;61071;-22
2023/09/27 05:55:42;;;;;;;4.80;4.00;;;;;;;15.66;85.40;100144.08;102650;1292;600578;-22
2023/09/27 06:05:49;;;;;;;6.40;5.60;;;;;;;15.48;84.54;100141.21;102652;1293;600165;-20
2023/09/27 06:08:17;;;;;;;6.40;4.00;;;;;;;15.45;85.12;100141.65;104918;1267;61620;-21
2023/09/27 06:10:45;;;;;;;5.50;4.30;;;;;;;15.96;84.29;100143.08;104871;1270;61215;-21
2023/09/27 06:13:12;;;;;;;5.20;4.50;;;;;;;16.43;81.09;100140.21;104825;1268;71050;-21
2023/09/27 06:15:41;;;;;;;6.40;5.40;;;;;;;16.40;81.00;100144.55;104814;1267;74290;-21
2023/09/27 06:25:48;;;;;;;5.50;4.30;;;;;;;15.58;84.07;100153.16;102573;1294;600186;-20
2023/09/27 06:28:16;;;;;;;5.60;4.80;;;;;;;15.81;84.59;100154.55;105008;1267;61129;-20
2023/09/27 06:30:43;;;;;;;6.60;5.70;;;;;;;16.11;82.87;100152.83;104763;1267;61132;-20
2023/09/27 07:03:29;;;;;;;4.50;3.70;;;;;;;16.85;81.10;100163.84;103582;1280;616432;-22
2023/09/27 07:05:57;;;;;;;6.40;4.90;;;;;;;17.52;80.02;100166.60;104855;1264;61878;-22
2023/09/27 07:08:24;;;;;;;7.40;5.20;;;;;;;17.86;76.91;100168.67;105137;1269;62409;-22
2023/09/27 07:10:52;;;;;;;7.90;5.70;;;;;;;17.75;76.64;100168.88;104877;1263;72076;-23
2023/09/27 07:13:40;;;;;;;7.30;6.30;;;;;;;17.40;76.95;100170.02;104663;1272;74441;-21
2023/09/27 07:16:26;;;;;;;9.30;6.60;;;;;;;17.19;78.21;100174.41;102541;1266;3132071;-22
2023/09/27 07:18:53;;;;;;;7.00;6.00;;;;;;;17.02;78.59;100173.77;104894;1267;61127;-22
2023/09/27 07:21:23;;;;;;;5.90;4.40;;;;;;;16.75;80.25;100178.48;104765;1273;61214;-21
2023/09/27 07:23:51;;;;;;;5.20;4.40;;;;;;;17.13;80.51;100180.34;104838;1267;71180;-21
2023/09/27 07:26:19;;;;;;;6.40;5.20;;;;;;;17.92;79.07;100183.64;104692;1272;73500;-22
2023/09/27 07:28:46;;;;;;;5.20;4.70;;;;;;;18.24;77.82;100181.48;104875;1267;72474;-22
2023/09/27 07:31:17;;;;;;;7.10;6.10;;;;;;;18.35;76.64;100182.80;104859;1267;61142;-22
2023/09/27 07:33:45;;;;;;;7.90;6.20;;;;;;;18.40;76.39;100182.27;104852;1267;61779;-21
2023/09/27 07:36:13;;;;;;;8.50;6.70;;;;;;;18.41;75.97;100182.48;104841;1271;71869;-21
2023/09/27 07:38:40;;;;;;;7.90;6.00;;;;;;;18.42;76.15;100183.34;105016;1264;74432;-23
2023/09/27 07:41:08;;;;;;;4.10;3.70;;;;;;;18.44;75.74;100185.77;105165;1263;72126;-22
2023/09/27 07:43:36;;;;;;;5.70;4.60;;;;;;;19.11;75.49;100181.92;104915;1262;61051;-22
2023/09/27 07:46:06;;;;;;;7.60;5.20;;;;;;;19.44;70.66;100182.32;104998;1269;61186;-21
2023/09/27 07:48:37;;;;;;;10.50;5.50;;;;;;;19.50;70.25;100182.59;105118;1263;73013;-22
2023/09/27 07:51:21;;;;;;;7.90;6.10;;;;;;;19.37;71.46;100183.58;104991;1264;74291;-22
2023/09/27 07:53:48;;;;;;;7.60;6.50;;;;;;;19.20;71.24;100183.98;105003;1269;72705;-22
2023/09/27 07:56:20;;;;;;;7.70;6.90;;;;;;;18.89;72.00;100181.23;105086;1264;61070;-22
2023/09/27 07:58:52;;;;;;;9.00;6.70;;;;;;;18.41;74.10;100185.12;104851;1269;61122;-21
2023/09/27 08:01:20;;;;;;;9.20;7.30;;;;;;;18.72;73.79;100186.38;104909;1263;71627;-22
2023/09/27 08:03:48;;;;;;;8.40;7.00;;;;;;;18.70;72.73;100185.14;105196;1266;74407;-22
2023/09/27 08:06:16;;;;;;;9.00;6.80;;;;;;;18.65;73.02;100186.94;105166;1264;71324;-22
2023/09/27 08:08:43;;;;;;;8.40;6.70;;;;;;;18.62;73.17;100185.29;105130;1264;61161;-22
2023/09/27 08:11:13;;;;;;;10.70;7.80;;;;;;;18.60;73.71;100183.14;105091;1266;61128;-22
2023/09/27 08:13:40;;;;;;;6.50;5.60;;;;;;;18.38;75.06;100184.55;105067;1264;73446;-22
2023/09/27 08:16:07;;;;;;;6.80;5.60;;;;;;;19.06;72.74;100183.77;104967;1266;74349;-22
2023/09/27 08:18:37;;;;;;;7.80;6.10;;;;;;;19.47;70.35;100182.03;105104;1267;72237;-23
2023/09/27 08:21:04;;;;;;;8.50;6.40;;;;;;;19.41;70.35;100181.17;105173;1269;61243;-23
2023/09/27 08:23:31;;;;;;;9.60;7.60;;;;;;;19.41;70.95;100182.60;104856;1263;61183;-23
2023/09/27 08:25:58;;;;;;;8.40;6.60;;;;;;;19.24;71.79;100181.69;105193;1264;72892;-23
2023/09/27 08:28:28;;;;;;;8.70;7.20;;;;;;;19.43;71.56;100179.93;105166;1264;74344;-22
2023/09/27 08:30:59;;;;;;;8.40;7.20;;;;;;;19.53;71.43;100176.32;105102;1264;72808;-23
2023/09/27 08:33:27;;;;;;;8.00;6.90;;;;;;;19.66;71.24;100171.87;104846;1270;61182;-23
2023/09/27 08:35:55;;;;;;;10.90;8.30;;;;;;;19.59;70.62;100169.31;105094;1267;61076;-22
2023/09/27 08:38:26;;;;;;;8.90;7.50;;;;;;;19.07;71.93;100167.47;104826;1264;73086;-23
2023/09/27 08:40:53;;;;;;;10.90;7.50;;;;;;;19.24;71.73;100164.06;104993;1263;74341;-22
2023/09/27 08:43:21;;;;;;;12.90;8.00;;;;;;;19.48;71.19;100163.65;105032;1264;72876;-23
2023/09/27 08:45:50;;;;;;;9.60;7.70;;;;;;;19.73;70.27;100165.45;104965;1264;61088;-22
2023/09/27 08:48:20;;;;;;;15.40;9.20;;;;;;;19.50;70.89;100160.27;104984;1264;61533;-22
2023/09/27 08:50:48;;;;;;;13.00;8.10;;;;;;;19.74;70.56;100163.63;105221;1261;73017;-23
2023/09/27 08:53:16;;;;;;;13.30;8.30;;;;;;;19.66;69.26;100161.13;105176;1261;74176;-22
2023/09/27 08:55:47;;;;;;;24.20;12.80;;;;;;;19.93;69.78;100156.29;105501;1257;71788;-23
2023/09/27 08:58:14;;;;;;;29.10;14.30;;;;;;;20.43;68.61;100151.45;105388;1260;61064;-22
2023/09/27 09:00:42;;;;;;;11.70;7.60;;;;;;;20.80;66.01;100148.84;105542;1257;61124;-23
2023/09/27 09:03:10;;;;;;;8.60;6.10;;;;;;;20.78;65.82;100145.58;105624;1257;73188;-23
2023/09/27 09:05:39;;;;;;;9.70;5.80;;;;;;;21.13;64.79;100143.64;105576;1259;73319;-23
2023/09/27 09:08:07;;;;;;;10.70;6.30;;;;;;;21.41;63.69;100144.74;105309;1258;74028;-23
2023/09/27 09:10:34;;;;;;;8.60;6.00;;;;;;;21.88;62.48;100142.75;105499;1254;61100;-23
2023/09/27 09:13:01;;;;;;;9.80;6.10;;;;;;;22.03;60.66;100143.48;105552;1260;61167;-23
2023/09/27 09:15:44;;;;;;;10.10;6.50;;;;;;;22.39;60.36;100142.28;105474;1257;72929;-23
2023/09/27 09:18:12;;;;;;;;;;;;;;;22.96;59.12;100138.78;105555;1262;73573;-23
2023/09/27 09:20:51;;;;;;;8.30;5.30;;;;;;;23.47;57.44;100140.69;105645;1255;73018;-23
2023/09/27 09:23:33;;;;;;;7.20;5.00;;;;;;;23.96;56.05;100138.19;105323;1257;61062;-23
2023/09/27 09:26:05;;;;;;;9.00;5.60;;;;;;;24.10;54.85;100138.14;105344;1257;61093;-23
2023/09/27 09:28:33;;;;;;;20.80;12.90;;;;;;;24.31;54.35;100142.17;105477;1263;72393;-24
2023/09/27 09:31:01;;;;;;;11.10;6.90;;;;;;;24.28;53.54;100139.53;105496;1257;74651;-23
2023/09/27 09:33:28;;;;;;;8.10;5.30;;;;;;;24.37;53.88;100136.34;106018;1251;72875;-24
2023/09/27 09:35:56;;;;;;;8.40;5.10;;;;;;;24.86;53.78;100134.39;105935;1255;61990;-23
2023/09/27 09:38:29;;;;;;;6.40;5.00;;;;;;;24.80;51.92;100131.80;105957;1251;61054;-23
2023/09/27 09:40:56;;;;;;;11.40;6.00;;;;;;;25.03;51.79;100129.27;105739;1256;72073;-23
2023/09/27 09:43:34;;;;;;;8.60;5.00;;;;;;;25.32;51.23;100127.34;105832;1251;75670;-23
2023/09/27 09:46:06;;;;;;;6.70;4.90;;;;;;;25.57;49.20;100122.95;105729;1251;71823;-23
2023/09/27 09:48:34;;;;;;;6.90;4.50;;;;;;;25.84;49.74;100124.93;105735;1251;61134;-23
2023/09/27 09:51:06;;;;;;;6.20;4.10;;;;;;;26.35;48.65;100122.23;105728;1254;61038;-24
2023/09/27 09:53:39;;;;;;;6.80;4.30;;;;;;;26.70;47.22;100122.02;105897;1258;72906;-22
2023/09/27 09:56:07;;;;;;;6.00;3.70;;;;;;;27.08;45.85;100122.30;105540;1254;74128;-22
2023/09/27 09:58:59;;;;;;;36.70;23.50;;;;;;;27.11;45.51;100115.48;105315;1254;72197;-22
2023/09/27 10:01:28;;;;;;;11.60;8.60;;;;;;;26.29;46.71;100118.48;105519;1259;61250;-22
2023/09/27 10:03:56;;;;;;;9.30;7.20;;;;;;;26.81;46.54;100113.66;105543;1258;61514;-23
2023/09/27 10:06:23;;;;;;;11.60;4.70;;;;;;;26.95;45.16;100108.45;105540;1259;72120;-23
2023/09/27 10:09:13;;;;;;;6.90;4.70;;;;;;;26.42;44.85;100105.08;105706;1260;75908;-23
2023/09/27 10:11:44;;;;;;;12.90;7.90;;;;;;;26.87;45.69;100103.45;105906;1256;70705;-23
2023/09/27 10:14:12;;;;;;;10.80;5.60;;;;;;;27.38;44.56;100102.65;105750;1251;61233;-23
2023/09/27 10:16:39;;;;;;;6.10;4.30;;;;;;;27.96;43.65;100101.37;105616;1258;61113;-23
2023/09/27 10:19:06;;;;;;;6.50;4.20;;;;;;;28.14;42.62;100103.67;105774;1257;73434;-23
2023/09/27 10:21:34;;;;;;;5.90;4.50;;;;;;;28.49;42.55;100101.28;105834;1257;74229;-23
2023/09/27 10:24:02;;;;;;;6.70;3.40;;;;;;;28.88;41.28;100093.89;105746;1251;73822;-23
2023/09/27 10:26:33;;;;;;;5.40;3.70;;;;;;;29.10;40.42;100092.86;105654;1256;61195;-23
2023/09/27 10:29:01;;;;;;;6.60;4.40;;;;;;;27.60;41.54;100098.76;105585;1255;61102;-22
2023/09/27 10:31:30;;;;;;;7.80;3.60;;;;;;;27.82;42.36;100096.02;105628;1251;72913;-21
2023/09/27 10:33:58;;;;;;;5.20;3.50;;;;;;;28.42;40.27;100089.65;105589;1260;75768;-23
2023/09/27 10:36:25;;;;;;;5.90;3.70;;;;;;;28.83;39.04;100083.71;105939;1254;73035;-23
2023/09/27 10:38:51;;;;;;;7.60;3.90;;;;;;;28.92;38.87;100082.60;105947;1252;61641;-23
2023/09/27 10:41:34;;;;;;;6.60;4.20;;;;;;;28.52;39.27;100081.89;105772;1257;61090;-23
2023/09/27 10:44:02;;;;;;;6.00;4.20;;;;;;;26.80;41.48;100082.29;105945;1251;71849;-23
2023/09/27 10:46:42;;;;;;;6.80;4.10;;;;;;;27.30;41.02;100082.40;105731;1252;74272;-23
2023/09/27 10:49:09;;;;;;;8.30;3.80;;;;;;;27.59;40.52;100084.60;105688;1259;73102;-23
2023/09/27 10:51:37;;;;;;;8.40;4.10;;;;;;;28.39;39.79;100079.32;105567;1256;61116;-23
2023/09/27 10:54:08;;;;;;;8.00;4.30;;;;;;;27.72;39.74;100075.73;105697;1253;61157;-23
2023/09/27 10:56:39;;;;;;;11.20;3.90;;;;;;;27.86;40.00;100073.50;105444;1259;71945;-24
2023/09/27 10:59:06;;;;;;;6.00;3.60;;;;;;;28.58;38.79;100067.78;105684;1251;74306;-23
2023/09/27 11:01:35;;;;;;;9.80;4.20;;;;;;;28.97;37.23;100062.19;105856;1254;73198;-24
2023/09/27 11:04:03;;;;;;;10.70;4.80;;;;;;;29.05;37.05;100059.20;105975;1252;61696;-23
2023/09/27 11:06:31;;;;;;;9.40;4.40;;;;;;;29.21;37.44;100060.18;105623;1252;61155;-23
2023/09/27 11:09:08;;;;;;;8.00;4.30;;;;;;;29.27;37.38;100060.79;105722;1255;72891;-23
2023/09/27 11:11:35;;;;;;;11.70;3.90;;;;;;;29.45;36.71;100053.16;105587;1259;74101;-23
2023/09/27 11:14:02;;;;;;;11.30;3.80;;;;;;;29.38;36.99;100054.46;105716;1256;73275;-23
2023/09/27 11:16:29;;;;;;;10.50;3.80;;;;;;;29.22;37.24;100052.59;105651;1252;61056;-23
2023/09/27 11:18:56;;;;;;;6.50;4.20;;;;;;;29.09;37.00;100052.57;105703;1257;61161;-23
2023/09/27 11:21:25;;;;;;;8.40;4.20;;;;;;;29.12;36.71;100050.30;105732;1254;74304;-23
2023/09/27 11:24:00;;;;;;;4.70;4.00;;;;;;;29.45;36.59;100048.33;105512;1259;74300;-23
2023/09/27 11:26:29;;;;;;;5.20;3.90;;;;;;;29.52;35.94;100051.76;105694;1251;74023;-23
2023/09/27 11:29:04;;;;;;;6.90;4.10;;;;;;;29.50;36.47;100046.01;105585;1260;61100;-23
2023/09/27 11:31:32;;;;;;;12.90;4.30;;;;;;;29.57;36.00;100044.92;105878;1258;61614;-23
2023/09/27 11:34:19;;;;;;;5.70;4.00;;;;;;;29.59;35.94;100043.81;105676;1258;73702;-24
2023/09/27 11:36:47;;;;;;;6.90;4.60;;;;;;;28.86;36.78;100042.77;105453;1251;76013;-24
2023/09/27 11:39:18;;;;;;;7.00;4.50;;;;;;;28.17;37.94;100042.39;105693;1257;74073;-23
2023/09/27 11:41:46;;;;;;;7.90;3.90;;;;;;;28.02;38.27;100038.21;105625;1252;61145;-23
2023/09/27 11:44:26;;;;;;;8.10;4.30;;;;;;;28.16;38.06;100035.41;105698;1257;61143;-23
2023/09/27 11:47:07;;;;;;;5.70;4.50;;;;;;;28.44;37.77;100031.80;105618;1254;73478;-24
2023/09/27 11:49:34;;;;;;;15.80;7.10;;;;;;;28.38;37.33;100031.13;105836;1256;75869;-23
2023/09/27 11:52:02;;;;;;;8.10;5.70;;;;;;;27.94;37.88;100030.40;105542;1257;74264;-24
2023/09/27 11:54:29;;;;;;;8.60;4.70;;;;;;;27.98;37.78;100029.63;105547;1267;61214;-23
2023/09/27 11:56:57;;;;;;;7.20;4.70;;;;;;;27.89;37.58;100029.98;105583;1252;61138;-24
2023/09/27 11:59:25;;;;;;;10.50;4.60;;;;;;;27.92;37.68;100029.91;105647;1252;74055;-23
2023/09/27 12:01:52;;;;;;;8.80;4.20;;;;;;;28.18;37.04;100027.14;105910;1251;74779;-23
2023/09/27 12:04:19;;;;;;;8.40;4.60;;;;;;;28.28;37.01;100024.89;105695;1251;72660;-23
2023/09/27 12:06:46;;;;;;;8.60;4.50;;;;;;;27.77;37.52;100024.02;105789;1256;61706;-23
2023/09/27 12:09:14;;;;;;;5.90;4.10;;;;;;;27.76;38.10;100026.18;105305;1251;62013;-23
2023/09/27 12:11:41;;;;;;;13.30;4.40;;;;;;;27.92;37.28;100023.33;105681;1254;74986;-23
2023/09/27 12:14:08;;;;;;;10.90;3.90;;;;;;;28.12;37.16;100021.81;105706;1260;74062;-23
2023/09/27 12:16:35;;;;;;;11.70;3.40;;;;;;;28.27;37.19;100019.02;105663;1262;74019;-23
2023/09/27 12:19:03;;;;;;;7.40;3.80;;;;;;;28.06;36.38;100017.95;105725;1257;61699;-23
2023/09/27 12:21:34;;;;;;;9.70;4.10;;;;;;;27.73;37.26;100019.16;105563;1266;61498;-23
2023/09/27 12:24:02;;;;;;;5.80;4.10;;;;;;;27.70;37.99;100020.70;105591;1251;73901;-23
2023/09/27 12:26:30;;;;;;;11.10;5.10;;;;;;;27.76;38.13;100021.14;105754;1251;75838;-23
2023/09/27 12:28:58;;;;;;;14.10;5.10;;;;;;;27.64;38.38;100015.25;105568;1257;72645;-23
2023/09/27 12:31:25;;;;;;;6.90;4.20;;;;;;;27.02;39.82;100013.92;105701;1251;61102;-23
2023/09/27 12:33:53;;;;;;;7.20;4.30;;;;;;;27.01;39.61;100009.46;105912;1256;61167;-22
2023/09/27 12:36:21;;;;;;;11.30;4.90;;;;;;;27.07;39.23;100004.86;105913;1256;74936;-22
2023/09/27 12:38:48;;;;;;;11.20;4.20;;;;;;;26.55;40.11;100003.07;105974;1256;74453;-23
2023/09/27 12:41:15;;;;;;;20.10;4.40;;;;;;;27.02;39.56;100000.45;105743;1251;72434;-23
2023/09/27 12:43:42;;;;;;;10.80;4.40;;;;;;;27.23;39.07;100000.54;105571;1253;61057;-23
2023/09/27 12:46:09;;;;;;;24.80;13.30;;;;;;;27.34;39.12;99995.89;105692;1257;61146;-23
2023/09/27 12:48:37;;;;;;;11.10;5.50;;;;;;;27.23;38.81;99996.67;105726;1257;75314;-23
2023/09/27 12:51:07;;;;;;;15.70;9.80;;;;;;;27.06;38.96;99992.39;105720;1256;74879;-23
2023/09/27 12:53:35;;;;;;;28.00;15.20;;;;;;;25.98;40.18;99992.58;105421;1257;73103;-23
2023/09/27 12:56:05;;;;;;;76.70;46.90;;;;;;;26.08;41.29;99993.45;105657;1254;61423;-23
2023/09/27 12:58:32;;;;;;;17.40;11.10;;;;;;;25.89;41.89;99992.98;105772;1252;61515;-22
2023/09/27 13:00:59;;;;;;;14.70;6.10;;;;;;;25.97;41.97;99994.88;105793;1257;74338;-22
2023/09/27 13:03:27;;;;;;;11.50;4.80;;;;;;;25.93;42.25;99988.92;105781;1251;74388;-22
2023/09/27 13:05:54;;;;;;;32.10;19.20;;;;;;;25.88;41.81;99988.00;105632;1256;73492;-22
2023/09/27 13:08:22;;;;;;;17.10;9.40;;;;;;;25.50;42.26;99980.94;105694;1257;61070;-22
2023/09/27 13:10:49;;;;;;;12.40;7.00;;;;;;;25.11;43.36;99981.03;105824;1255;61704;-22
2023/09/27 13:13:16;;;;;;;15.70;6.50;;;;;;;25.21;43.05;99978.31;105924;1251;74212;-22
2023/09/27 13:15:43;;;;;;;11.40;4.80;;;;;;;25.32;42.66;99975.38;105893;1256;74625;-22
2023/09/27 13:18:10;;;;;;;14.80;4.80;;;;;;;25.36;42.12;99974.27;105889;1256;73003;-22
2023/09/27 13:20:37;;;;;;;12.80;4.60;;;;;;;25.45;41.84;99973.05;105978;1251;61143;-22
2023/09/27 13:23:04;;;;;;;10.90;5.40;;;;;;;25.43;41.93;99973.87;105956;1256;61067;-23
2023/09/27 13:25:32;;;;;;;28.10;15.60;;;;;;;25.33;42.26;99973.41;105795;1256;75302;-23
2023/09/27 13:27:59;;;;;;;22.00;11.30;;;;;;;25.17;42.64;99973.48;105659;1257;76048;-23
2023/09/27 13:30:27;;;;;;;12.00;7.20;;;;;;;25.26;42.32;99971.17;105633;1253;72681;-23
2023/09/27 13:33:03;;;;;;;18.30;9.40;;;;;;;25.25;42.24;99968.25;105700;1257;61477;-22
2023/09/27 13:35:30;;;;;;;13.10;7.20;;;;;;;25.52;41.66;99966.64;105854;1256;61099;-22
2023/09/27 13:38:06;;;;;;;15.20;5.90;;;;;;;25.64;41.03;99961.37;105749;1256;73700;-22
2023/09/27 13:40:33;;;;;;;10.40;4.80;;;;;;;25.86;40.98;99964.86;105704;1260;73319;-22
2023/09/27 13:43:01;;;;;;;22.90;9.90;;;;;;;25.80;39.89;99957.38;105893;1251;72720;-22
2023/09/27 13:45:28;;;;;;;10.80;5.00;;;;;;;26.03;40.53;99960.55;105957;1251;61207;-22
2023/09/27 13:47:55;;;;;;;9.70;4.30;;;;;;;26.09;40.26;99958.77;105810;1251;61176;-22
2023/09/27 13:50:23;;;;;;;7.40;4.00;;;;;;;26.11;39.84;99957.66;105635;1260;73780;-22
2023/09/27 13:52:50;;;;;;;8.50;4.00;;;;;;;25.81;39.51;99961.17;105590;1257;74762;-22
2023/09/27 13:55:17;;;;;;;8.20;4.00;;;;;;;25.87;39.36;99963.42;105547;1251;72542;-22
2023/09/27 13:57:44;;;;;;;8.00;4.10;;;;;;;25.81;39.17;99960.95;105713;1251;61134;-22
2023/09/27 14:00:13;;;;;;;7.10;3.70;;;;;;;25.75;38.97;99964.92;105746;1257;61153;-22
2023/09/27 14:02:41;;;;;;;6.10;3.50;;;;;;;25.77;38.80;99959.92;105413;1260;71475;-22
2023/09/27 14:05:10;;;;;;;9.10;3.40;;;;;;;25.87;38.54;99955.54;105737;1260;75510;-22
2023/09/27 14:07:39;;;;;;;12.10;4.10;;;;;;;25.69;37.69;99954.09;105741;1251;72608;-22
2023/09/27 14:10:07;;;;;;;8.10;3.00;;;;;;;25.38;38.37;99955.44;105719;1251;61132;-22
2023/09/27 14:12:34;;;;;;;11.10;3.60;;;;;;;25.61;38.51;99956.29;105630;1257;61163;-22
2023/09/27 14:15:02;;;;;;;6.90;3.30;;;;;;;25.73;38.00;99952.00;105673;1256;73102;-22
2023/09/27 14:17:30;;;;;;;7.00;3.20;;;;;;;25.82;38.16;99955.42;105747;1256;74603;-22
2023/09/27 14:19:57;;;;;;;8.20;3.30;;;;;;;25.90;38.47;99951.98;105715;1252;72152;-22
2023/09/27 14:22:24;;;;;;;12.80;3.80;;;;;;;25.94;38.52;99948.77;105671;1256;61112;-22
2023/09/27 14:24:52;;;;;;;8.40;4.50;;;;;;;25.86;38.93;99948.90;105964;1256;61167;-22
2023/09/27 14:27:19;;;;;;;44.10;17.40;;;;;;;25.59;39.49;99947.64;105624;1251;74885;-22
2023/09/27 14:29:46;;;;;;;43.30;17.00;;;;;;;25.58;39.56;99947.30;105714;1251;74092;-22
2023/09/27 14:32:13;;;;;;;18.70;8.10;;;;;;;25.56;39.90;99943.45;105682;1251;72093;-22
2023/09/27 14:34:41;;;;;;;10.90;4.90;;;;;;;25.31;41.59;99938.92;105700;1251;61704;-22
2023/09/27 14:37:24;;;;;;;22.00;10.70;;;;;;;24.72;43.73;99938.70;105577;1256;61330;-22
2023/09/27 14:39:51;;;;;;;45.50;21.00;;;;;;;24.52;44.27;99931.85;105710;1251;74500;-22
2023/09/27 14:42:18;;;;;;;28.10;12.70;;;;;;;24.57;44.54;99936.09;105913;1257;75889;-22
2023/09/27 14:44:45;;;;;;;54.30;24.60;;;;;;;24.30;44.93;99930.59;105951;1251;73131;-22
2023/09/27 14:47:12;;;;;;;30.90;13.90;;;;;;;24.11;45.51;99932.11;105947;1253;60975;-22
2023/09/27 14:49:39;;;;;;;17.20;8.30;;;;;;;24.02;45.67;99926.66;105928;1255;61169;-22
2023/09/27 14:52:06;;;;;;;28.70;12.20;;;;;;;24.01;45.67;99927.29;105962;1251;74011;-22
2023/09/27 14:54:33;;;;;;;51.50;25.00;;;;;;;23.83;46.15;99923.98;105976;1257;75119;-22
2023/09/27 14:57:00;;;;;;;72.40;30.40;;;;;;;23.74;46.82;99922.67;105937;1258;71804;-21
2023/09/27 14:59:27;;;;;;;62.00;28.70;;;;;;;23.79;46.32;99919.13;105955;1254;61621;-22
2023/09/27 15:01:57;;;;;;;40.30;21.20;;;;;;;23.80;46.59;99918.23;105712;1256;61089;-22
2023/09/27 15:04:25;;;;;;;93.70;44.30;;;;;;;23.70;46.79;99920.34;105896;1251;73731;-22
2023/09/27 15:06:53;;;;;;;73.50;35.50;;;;;;;23.64;46.84;99917.09;105920;1257;74295;-22
2023/09/27 15:09:20;;;;;;;56.30;25.50;;;;;;;23.61;46.67;99919.64;105966;1257;73369;-22
2023/09/27 15:11:47;;;;;;;48.90;23.50;;;;;;;23.61;46.68;99920.55;105958;1251;61055;-22
2023/09/27 15:14:14;;;;;;;34.80;16.30;;;;;;;23.67;46.16;99925.05;105666;1257;61058;-22
2023/09/27 15:16:41;;;;;;;52.30;24.80;;;;;;;23.69;46.51;99920.21;105967;1256;74183;-21
2023/09/27 15:19:09;;;;;;;33.10;16.30;;;;;;;23.71;46.47;99919.98;105795;1257;74679;-22
2023/09/27 15:21:36;;;;;;;23.60;12.50;;;;;;;23.59;46.76;99915.77;105699;1257;72588;-22
2023/09/27 15:24:03;;;;;;;16.60;9.20;;;;;;;23.53;46.76;99919.23;105893;1251;61185;-23
2023/09/27 15:26:30;;;;;;;32.70;15.10;;;;;;;23.39;46.80;99924.11;106011;1257;61169;-23
2023/09/27 15:28:59;;;;;;;27.20;13.20;;;;;;;23.35;47.22;99923.73;106027;1251;73844;-23
2023/09/27 15:31:28;;;;;;;29.40;13.40;;;;;;;23.24;47.38;99922.86;105962;1255;74839;-23
2023/09/27 15:33:56;;;;;;;21.20;9.20;;;;;;;23.16;47.64;99919.71;105976;1252;72510;-23
2023/09/27 15:36:26;;;;;;;19.40;7.30;;;;;;;23.06;49.60;99921.99;105961;1251;61985;-23
2023/09/27 15:38:53;;;;;;;49.80;20.10;;;;;;;22.87;50.05;99918.59;105725;1252;61112;-23
2023/09/27 15:41:20;;;;;;;54.00;22.50;;;;;;;22.69;49.88;99918.89;105983;1251;74842;-23
2023/09/27 15:43:50;;;;;;;41.20;14.90;;;;;;;22.57;50.90;99923.40;105822;1256;74316;-23
2023/09/27 15:46:19;;;;;;;88.40;38.20;;;;;;;22.39;51.39;99924.23;105820;1251;72654;-23
2023/09/27 15:48:46;;;;;;;31.10;14.80;;;;;;;22.22;51.93;99920.34;105758;1256;61069;-23
2023/09/27 15:51:15;;;;;;;52.30;22.20;;;;;;;22.02;52.48;99919.79;105910;1257;61173;-23
2023/09/27 15:53:42;;;;;;;30.50;13.60;;;;;;;21.83;53.05;99921.50;105668;1260;72821;-23
2023/09/27 15:56:10;;;;;;;52.60;19.60;;;;;;;21.66;53.69;99924.78;105866;1251;74648;-22
2023/09/27 15:58:37;;;;;;;31.50;12.50;;;;;;;21.47;54.07;99921.81;105845;1251;73155;-23
2023/09/27 16:01:05;;;;;;;77.30;26.60;;;;;;;21.29;54.59;99925.98;105602;1254;61052;-24
2023/09/27 16:03:32;;;;;;;54.20;19.50;;;;;;;21.12;55.01;99924.39;105568;1251;61134;-23
2023/09/27 16:06:00;;;;;;;84.30;30.80;;;;;;;20.96;55.30;99921.88;105945;1251;73624;-22
2023/09/27 16:08:29;;;;;;;88.90;32.90;;;;;;;20.82;55.86;99919.20;105943;1251;74684;-23
2023/09/27 16:10:57;;;;;;;156.40;61.00;;;;;;;20.69;56.16;99921.18;105752;1251;71415;-22
2023/09/27 16:13:25;;;;;;;176.40;68.50;;;;;;;20.54;56.84;99918.86;105663;1251;61022;-23
2023/09/27 16:15:52;;;;;;;173.70;65.30;;;;;;;20.42;57.17;99919.65;105585;1258;61297;-23
2023/09/27 16:18:20;;;;;;;123.80;51.10;;;;;;;20.30;57.56;99923.55;105686;1251;74237;-23
2023/09/27 16:20:47;;;;;;;182.70;70.00;;;;;;;20.17;58.34;99920.21;105870;1255;74261;-22
2023/09/27 16:23:15;;;;;;;102.00;39.50;;;;;;;20.00;59.71;99918.90;105736;1254;72648;-23
2023/09/27 16:25:45;;;;;;;54.40;23.10;;;;;;;19.88;59.28;99920.70;105694;1257;61153;-22